1999 EVRINA:FREDERIC:FREDERIC_EVR (1999084S12119)


On this page: IBTrACS data - Map and Plots - Positions - Intensities - Original source data

Summary

Start Mar 25
End Apr 10
Basin SI
LMI 140 kt
Sources jtwc_sh
bom
reunion
neumann
In WMO? Yes
Previous storm 1999 HSK3299 (SI)
Previous in basin 1999 HSK3299 (SI)
Concurrent storms 1999 EVRINA (SI)
1999 GWENDA (SI)
1999 MISSING (WP)
Next in basin 1999 GWENDA (SI)
Next storm 1999 GWENDA (SI)

top of page IBTrACS Data: File Access

top of page HURSAT Data: File Access

Image of storm

top of page Plots:

Map of storm track will not appear if FTP is down
Time series of cyclone Maximum Sustained Wind will not appear if FTP is down
Time series of cyclone Minimum Central Pressure will not appear if FTP is down

top of page Track Data:Position

jtwc_sh bom reunion neumann
Date Lat Lon Lat Lon Lat Lon Lat Lon
1999-03-25 00:00:00 -11.9 119.3
1999-03-25 06:00:00 -12.0 118.8
1999-03-25 12:00:00 -12.1 118.1 -11.4 119.2
1999-03-25 18:00:00 -12.3 117.2 -11.8 117.9
1999-03-26 00:00:00 -12.8 116.5 -12.3 116.9
1999-03-26 06:00:00 -13.2 115.9 -12.7 115.8 -12.5 116.0
1999-03-26 12:00:00 -13.6 114.7 -13.1 114.6 -13.1 114.5
1999-03-26 18:00:00 -13.8 113.3 -13.4 113.5 -13.4 113.3
1999-03-27 00:00:00 -13.8 112.4 -13.5 112.0 -13.9 113.0
1999-03-27 06:00:00 -14.0 111.5 -14.3 110.9 -13.7 112.3
1999-03-27 12:00:00 -14.3 110.7 -14.7 109.8 -13.9 111.2
1999-03-27 18:00:00 -14.7 109.8 -14.7 109.1 -14.3 109.9
1999-03-28 00:00:00 -14.9 108.8 -14.8 108.5 -14.9 108.9
1999-03-28 06:00:00 -15.2 107.6 -15.2 107.6 -15.0 108.0
1999-03-28 12:00:00 -15.3 106.7 -15.7 106.6 -16.0 107.0
1999-03-28 18:00:00 -15.5 105.8 -15.8 105.8 -15.8 106.4
1999-03-29 00:00:00 -15.7 104.2 -15.8 105.0 -16.0 105.3
1999-03-29 06:00:00 -16.1 102.7 -16.0 103.4 -15.8 103.4
1999-03-29 12:00:00 -16.6 101.5 -16.4 101.9 -16.0 102.3
1999-03-29 18:00:00 -16.9 100.2 -16.7 100.4 -16.7 100.7
1999-03-30 00:00:00 -17.0 99.0 -17.0 99.0 -16.9 99.3 -16.8 99.5
1999-03-30 06:00:00 -17.1 97.4 -16.9 97.7 -17.0 97.9 -17.0 98.0
1999-03-30 12:00:00 -17.1 96.0 -17.1 96.2 -17.1 96.6 -17.2 96.6
1999-03-30 18:00:00 -17.3 94.6 -17.2 95.0 -17.2 95.3 -17.1 95.4
1999-03-31 00:00:00 -17.3 93.6 -17.3 94.0 -17.4 94.2 -17.2 94.0
jtwc_sh bom reunion neumann
1999-03-31 06:00:00 -17.4 92.5 -17.5 92.9 -17.5 93.0 -17.4 93.0
1999-03-31 12:00:00 -17.6 91.7 -17.6 92.0 -17.6 92.1 -17.6 91.9
1999-03-31 18:00:00 -17.5 90.8 -17.5 90.9 -17.6 91.3 -17.5 91.4
1999-04-01 00:00:00 -17.6 90.1 -17.5 90.4 -17.6 90.6 -17.5 90.7
1999-04-01 06:00:00 -17.6 89.6 -17.7 89.8 -17.7 90.0 -17.6 90.0
1999-04-01 12:00:00 -17.9 88.7 -18.1 89.2 -17.8 89.4 -17.8 89.4
1999-04-01 18:00:00 -18.2 87.9 -17.8 88.7 -17.8 88.7
1999-04-02 00:00:00 -18.2 86.9 -17.9 87.9 -17.9 87.9
1999-04-02 06:00:00 -18.2 86.0 -17.9 86.6 -17.9 86.6
1999-04-02 12:00:00 -18.3 85.3 -18.1 85.3 -18.1 85.3
1999-04-02 18:00:00 -18.4 84.0 -18.1 84.0 -18.1 84.0
1999-04-03 00:00:00 -18.2 82.6 -18.0 82.9 -18.0 82.9
1999-04-03 06:00:00 -17.9 81.3 -18.0 81.9 -18.0 81.9
1999-04-03 12:00:00 -17.9 80.3 -18.0 80.6 -18.0 80.6
1999-04-03 18:00:00 -18.0 79.3 -18.1 79.2 -18.1 79.2
1999-04-04 00:00:00 -18.1 77.9 -18.3 77.7 -18.3 77.7
1999-04-04 06:00:00 -18.3 76.2 -18.4 76.4 -18.4 76.4
1999-04-04 12:00:00 -18.5 74.8 -18.7 74.7 -18.7 74.7
1999-04-04 18:00:00 -18.7 73.8 -18.8 73.5 -18.8 73.5
1999-04-05 00:00:00 -18.9 72.4 -19.0 72.2 -19.0 72.2
1999-04-05 06:00:00 -19.0 71.0 -19.0 71.1 -19.0 71.1
1999-04-05 12:00:00 -18.8 69.6 -18.8 69.8 -18.8 69.8
1999-04-05 18:00:00 -18.6 68.9 -18.7 68.9 -18.7 68.9
1999-04-06 00:00:00 -18.5 68.1 -18.8 67.8 -18.8 67.8
jtwc_sh bom reunion neumann
1999-04-06 06:00:00 -18.7 67.0 -18.9 66.8 -18.9 66.8
1999-04-06 12:00:00 -18.8 66.2 -18.7 65.9 -18.7 65.9
1999-04-06 18:00:00 -18.9 65.4 -18.9 65.1 -18.9 65.1
1999-04-07 00:00:00 -19.2 64.3 -19.4 64.3 -19.4 64.3
1999-04-07 06:00:00 -19.5 63.3 -20.1 63.7 -20.1 63.7
1999-04-07 12:00:00 -19.7 62.5 -20.2 62.8 -20.2 62.8
1999-04-07 18:00:00 -20.7 62.4 -20.7 62.4
1999-04-08 00:00:00 -21.6 62.4 -21.6 62.4
1999-04-08 06:00:00 -22.1 62.6 -22.1 62.6
1999-04-08 12:00:00 -22.3 63.8 -22.3 63.8
1999-04-08 18:00:00 -22.3 65.2 -22.3 65.2
1999-04-09 00:00:00 -22.3 66.9 -22.3 66.9
1999-04-09 06:00:00 -22.6 67.3 -22.6 67.3
1999-04-09 12:00:00 -22.3 67.7 -22.3 67.7
1999-04-09 18:00:00 -22.2 67.6 -22.2 67.6
1999-04-10 00:00:00 -22.1 67.4 -22.1 67.4
1999-04-10 06:00:00 -22.2 67.0 -22.2 67.0
1999-04-10 12:00:00 -22.3 66.5 -22.3 66.5
1999-04-10 18:00:00 -22.0 65.8 -22.0 65.8

top of pageTrack Data:Intensity

jtwc_sh bom reunion neumann
Date Wind Pres Wind Pres Wind Pres Wind Pres
1999-03-25 00:00:00 15.
1999-03-25 06:00:00 15.
1999-03-25 12:00:00 20. 19. 1005.
1999-03-25 18:00:00 20. 19. 1005.
1999-03-26 00:00:00 25. 19. 1005.
1999-03-26 06:00:00 25. 19. 1005. 25. 1002.
1999-03-26 12:00:00 25. 19. 1005. 25. 1002.
1999-03-26 18:00:00 30. 23. 1002. 30. 1000.
1999-03-27 00:00:00 30. 27. 1000. 30. 1000.
1999-03-27 06:00:00 30. 35. 995. 30. 1000.
1999-03-27 12:00:00 30. 41. 990. 35. 998.
1999-03-27 18:00:00 35. 49. 985. 35. 998.
1999-03-28 00:00:00 40. 49. 985. 35. 997.
1999-03-28 06:00:00 40. 49. 985. 40. 994.
1999-03-28 12:00:00 45. 49. 985. 40. 995.
1999-03-28 18:00:00 55. 64. 970. 50. 988.
1999-03-29 00:00:00 65. 70. 965. 60. 980.
1999-03-29 06:00:00 75. 76. 960. 70. 975.
1999-03-29 12:00:00 80. 84. 950. 75. 970.
1999-03-29 18:00:00 100. 93. 940. 95. 955.
1999-03-30 00:00:00 115. 93. 940. 70. 955. 100. 950.
1999-03-30 06:00:00 115. 101. 930. 80. 945. 110. 940.
1999-03-30 12:00:00 115. 101. 930. 90. 930. 130. 920.
1999-03-30 18:00:00 125. 101. 930. 90. 930. 130. 920.
1999-03-31 00:00:00 125. 105. 925. 95. 925. 130. 920.
jtwc_sh bom reunion neumann
1999-03-31 06:00:00 125. 107. 920. 95. 925. 130. 920.
1999-03-31 12:00:00 140. 107. 920. 105. 915. 130. 920.
1999-03-31 18:00:00 140. 107. 920. 105. 915. 135. 915.
1999-04-01 00:00:00 135. 107. 920. 105. 915. 135. 915.
1999-04-01 06:00:00 125. 93. 940. 100. 920. 125. 925.
1999-04-01 12:00:00 125. 80. 955. 95. 925. 125. 925.
1999-04-01 18:00:00 115. 85. 940. 110. 940.
1999-04-02 00:00:00 100. 70. 955. 95. 955.
1999-04-02 06:00:00 80. 55. 972. 70. 972.
1999-04-02 12:00:00 65. 53. 975. 70. 975.
1999-04-02 18:00:00 75. 53. 975. 70. 975.
1999-04-03 00:00:00 65. 50. 978. 65. 978.
1999-04-03 06:00:00 65. 50. 978. 65. 978.
1999-04-03 12:00:00 60. 50. 978. 65. 978.
1999-04-03 18:00:00 60. 48. 980. 60. 980.
1999-04-04 00:00:00 55. 45. 983. 55. 983.
1999-04-04 06:00:00 55. 40. 987. 50. 987.
1999-04-04 12:00:00 50. 37. 990. 45. 990.
1999-04-04 18:00:00 50. 35. 992. 45. 992.
1999-04-05 00:00:00 55. 35. 992. 45. 992.
1999-04-05 06:00:00 55. 30. 995. 40. 995.
1999-04-05 12:00:00 45. 30. 995. 40. 995.
1999-04-05 18:00:00 40. 30. 997. 35. 997.
1999-04-06 00:00:00 40. 30. 997. 35. 997.
jtwc_sh bom reunion neumann
1999-04-06 06:00:00 35. 30. 997. 35. 997.
1999-04-06 12:00:00 35. 28. 998. 35. 998.
1999-04-06 18:00:00 30. 28. 998. 35. 998.
1999-04-07 00:00:00 30. 25. 1000. 30. 1000.
1999-04-07 06:00:00 30. 25. 1000. 30. 1000.
1999-04-07 12:00:00 30. 25. 1000. 30. 1000.
1999-04-07 18:00:00 25. 1002. 25. 1002.
1999-04-08 00:00:00 25. 1002. 25. 1002.
1999-04-08 06:00:00 25. 1002. 25. 1002.
1999-04-08 12:00:00 25. 1002. 25. 1002.
1999-04-08 18:00:00 20. 1004. 20. 1004.
1999-04-09 00:00:00 20. 1004. 20. 1004.
1999-04-09 06:00:00 20. 1005. 20. 1005.
1999-04-09 12:00:00 1005. 20. 1005.
1999-04-09 18:00:00 1007. 15. 1007.
1999-04-10 00:00:00 1008. 10. 1008.
1999-04-10 06:00:00 1010. 10. 1010.
1999-04-10 12:00:00 1010. 10. 1010.
1999-04-10 18:00:00 1012. 10. 1012.

top of page Links to source data

Source Source file Format
jtwc_sh bsh311999.txt ATCF
bom IDCKMSTM0S.csv:Line=21394:FREDERIC CSV file (from Excel file)
reunion WMO-Best-Tracks.txt:Line=18600:evrina WMO (old format)
neumann tracks.sh:Storm=1172:FREDERIC/EVR:INA:BSH311999 HURDAT